createdAt,value
2023-02-08T00:00:32.129Z,38.5
2023-02-08T00:02:33.919Z,38.3
2023-02-08T00:04:35.687Z,39.7
2023-02-08T00:06:37.452Z,35.8
2023-02-08T00:08:39.241Z,36.6
2023-02-08T00:10:41.357Z,37.6
2023-02-08T00:12:42.779Z,36.8
2023-02-08T00:14:47.738Z,40.3
2023-02-08T00:16:49.482Z,39
2023-02-08T00:18:51.298Z,38.7
2023-02-08T00:20:53.092Z,37.6
2023-02-08T00:22:54.842Z,42.5
2023-02-08T00:24:56.620Z,38.5
2023-02-08T00:26:58.419Z,38
2023-02-08T00:29:03.329Z,40
2023-02-08T00:31:05.237Z,40.3
2023-02-08T00:33:06.891Z,38.8
2023-02-08T00:34:09.338Z,43.4
2023-02-08T00:38:12.913Z,43.1
2023-02-08T00:40:14.680Z,42.2
2023-02-08T00:42:19.593Z,42.6
2023-02-08T00:44:21.379Z,40.2
2023-02-08T00:46:23.177Z,39.7
2023-02-08T00:48:24.882Z,38.5
2023-02-08T00:50:26.686Z,41.2
2023-02-08T00:52:28.431Z,36.7
2023-02-08T00:54:30.176Z,40.1
2023-02-08T00:56:35.135Z,39.1
2023-02-08T00:58:36.896Z,44.1
2023-02-08T01:00:39.024Z,36.9
2023-02-08T01:02:40.410Z,39.3
2023-02-08T01:04:42.184Z,36.7
2023-02-08T01:08:45.698Z,36.9
2023-02-08T01:10:50.628Z,43.6
2023-02-08T01:14:55.674Z,39
2023-02-08T01:16:57.392Z,36.8
2023-02-08T01:18:59.146Z,35.2
2023-02-08T01:21:00.910Z,39.7
2023-02-08T01:23:02.637Z,42.1
2023-02-08T01:25:07.575Z,44.8
2023-02-08T01:27:09.347Z,38.2
2023-02-08T01:29:11.132Z,44.6
2023-02-08T01:30:13.545Z,44.8
2023-02-08T01:32:15.313Z,38.7
2023-02-08T01:38:23.767Z,43
2023-02-08T01:40:25.544Z,40.9
2023-02-08T01:42:27.304Z,41.7
2023-02-08T01:44:29.026Z,39.6
2023-02-08T01:46:30.795Z,42.2
2023-02-08T01:48:32.562Z,42.1
2023-02-08T01:50:34.275Z,40.9
2023-02-08T01:54:40.955Z,38.5
2023-02-08T01:56:42.708Z,40.1
2023-02-08T01:58:44.461Z,39.5
2023-02-08T02:00:46.374Z,40.3
2023-02-08T02:02:47.941Z,39
2023-02-08T02:04:49.738Z,41.8
2023-02-08T02:06:54.664Z,42.2
2023-02-08T02:08:56.385Z,39
2023-02-08T02:12:59.899Z,38.4
2023-02-08T02:15:01.654Z,33.6
2023-02-08T02:17:03.398Z,34.1
2023-02-08T02:19:05.158Z,35.2
2023-02-08T02:21:10.041Z,38.1
2023-02-08T02:23:11.808Z,36.1
2023-02-08T02:25:13.564Z,37.8
2023-02-08T02:26:16.004Z,41.2
2023-02-08T02:30:19.488Z,31.9
2023-02-08T02:32:21.380Z,34.8
2023-02-08T02:34:26.144Z,41
2023-02-08T02:36:27.876Z,36.1
2023-02-08T02:40:31.372Z,34.4
2023-02-08T02:42:33.131Z,35.8
2023-02-08T02:44:34.857Z,34.1
2023-02-08T02:46:36.577Z,33.8
2023-02-08T02:48:41.509Z,40.1
2023-02-08T02:50:43.316Z,36.9
2023-02-08T02:52:45.002Z,36.9
2023-02-08T02:58:50.178Z,33.4
2023-02-08T03:04:58.582Z,38.8
2023-02-08T03:07:00.355Z,36.8
2023-02-08T03:09:02.085Z,35.5
2023-02-08T03:11:03.826Z,34.2
2023-02-08T03:13:05.565Z,35
2023-02-08T03:15:07.293Z,34.2
2023-02-08T03:17:12.171Z,38.5
2023-02-08T03:21:15.633Z,35.4
2023-02-08T03:25:34.060Z,34.4
2023-02-08T03:29:40.679Z,39.3
2023-02-08T03:31:42.520Z,37.8
2023-02-08T03:33:44.128Z,30.5
2023-02-08T03:35:45.994Z,31.2
2023-02-08T03:37:47.574Z,31.5
2023-02-08T03:39:49.306Z,31.6
2023-02-08T03:41:51.034Z,31.4
2023-02-08T03:43:55.956Z,38
2023-02-08T03:45:57.725Z,32.5
2023-02-08T03:47:59.394Z,32.9
2023-02-08T03:50:01.114Z,33
2023-02-08T03:52:02.854Z,31.2
2023-02-08T03:54:04.549Z,32.9
2023-02-08T03:56:06.180Z,31.8
2023-02-08T03:58:11.105Z,38.1
2023-02-08T04:00:12.785Z,34
2023-02-08T04:02:14.532Z,31.4
2023-02-08T04:04:16.192Z,35.2
2023-02-08T04:06:17.897Z,32.8
2023-02-08T04:08:19.633Z,31
2023-02-08T04:10:21.324Z,31.3
2023-02-08T04:12:26.197Z,34.6
2023-02-08T04:14:27.958Z,34.7
2023-02-08T04:16:29.634Z,35.8
2023-02-08T04:17:32.091Z,36.6
2023-02-08T04:19:33.798Z,33.8
2023-02-08T04:21:35.669Z,34.6
2023-02-08T04:23:37.193Z,34.7
2023-02-08T04:25:42.063Z,35.3
2023-02-08T04:27:43.748Z,36
2023-02-08T04:29:45.485Z,33.6
2023-02-08T04:31:47.226Z,29.3
2023-02-08T04:33:48.870Z,30.4
2023-02-08T04:35:50.586Z,33.3
2023-02-08T04:37:52.274Z,31.9
2023-02-08T04:39:57.176Z,37.1
2023-02-08T04:41:59.002Z,34.1
2023-02-08T04:44:00.563Z,34.3
2023-02-08T04:46:02.313Z,34.7
2023-02-08T04:48:03.967Z,29.8
2023-02-08T04:50:05.653Z,35.8
2023-02-08T04:52:07.374Z,34.9
2023-02-08T04:54:12.239Z,39.4
2023-02-08T05:00:17.397Z,34.1
2023-02-08T05:02:19.213Z,36.2
2023-02-08T05:04:20.809Z,32.4
2023-02-08T05:12:30.902Z,32.6
2023-02-08T05:13:33.192Z,34.1
2023-02-08T05:15:34.921Z,33.2
2023-02-08T05:17:36.625Z,31.4
2023-02-08T05:19:38.342Z,35.4
2023-02-08T05:21:43.206Z,36.5
2023-02-08T05:23:46.759Z,33.6
2023-02-08T05:25:46.582Z,30
2023-02-08T05:27:48.413Z,31.5
2023-02-08T05:29:49.977Z,31.2
2023-02-08T05:31:51.704Z,31.8
2023-02-08T05:33:53.353Z,31.7
2023-02-08T05:35:58.250Z,36
2023-02-08T05:38:00.129Z,33.5
2023-02-08T05:40:01.642Z,29.1
2023-02-08T05:42:03.318Z,33.3
2023-02-08T05:44:05.018Z,30.4
2023-02-08T05:46:06.707Z,29.6
2023-02-08T05:48:08.415Z,32.4
2023-02-08T05:50:13.261Z,33.5
2023-02-08T05:52:14.932Z,33.3
2023-02-08T05:54:16.744Z,31.6
2023-02-08T05:56:18.441Z,31.1
2023-02-08T05:58:20.098Z,31.8
2023-02-08T06:00:21.782Z,33.4
2023-02-08T06:02:23.445Z,32.2
2023-02-08T06:04:28.390Z,35.7
2023-02-08T06:06:30.022Z,33.5
2023-02-08T06:08:31.668Z,29.8
2023-02-08T06:09:34.134Z,36.8
2023-02-08T06:11:35.849Z,35
2023-02-08T06:13:37.496Z,31.3
2023-02-08T06:15:39.175Z,33.5
2023-02-08T06:17:44.054Z,36.3
2023-02-08T06:19:45.726Z,30.5
2023-02-08T06:21:47.433Z,33.2
2023-02-08T06:25:50.797Z,33.8
2023-02-08T06:29:54.164Z,31
2023-02-08T06:31:59.173Z,34.8
2023-02-08T06:34:00.671Z,34.7
2023-02-08T06:36:02.356Z,32.5
2023-02-08T06:38:04.016Z,31.9
2023-02-08T06:40:05.677Z,33.2
2023-02-08T06:42:07.393Z,34.6
2023-02-08T06:44:09.060Z,34
2023-02-08T06:46:13.869Z,37.8
2023-02-08T06:48:15.582Z,35
2023-02-08T06:50:17.214Z,34.4
2023-02-08T06:52:18.888Z,32.8
2023-02-08T06:54:20.554Z,35.6
2023-02-08T06:56:22.239Z,33.6
2023-02-08T06:58:23.911Z,34.9
2023-02-08T07:00:28.752Z,36
2023-02-08T07:02:30.463Z,33.7
2023-02-08T07:04:32.095Z,34.2
2023-02-08T07:06:56.414Z,40
2023-02-08T07:13:04.683Z,39.2
2023-02-08T07:15:06.358Z,39.1
2023-02-08T07:23:13.081Z,33.2
2023-02-08T07:25:14.746Z,37.7
2023-02-08T07:27:19.585Z,38
2023-02-08T07:29:21.291Z,36.1
2023-02-08T07:31:22.967Z,31.8
2023-02-08T07:33:24.655Z,32.2
2023-02-08T07:35:26.350Z,35.6
2023-02-08T07:37:28.012Z,33.9
2023-02-08T07:39:29.691Z,34.8
2023-02-08T07:41:34.558Z,37.4
2023-02-08T07:43:36.266Z,37.7
2023-02-08T07:45:37.949Z,34.4
2023-02-08T07:47:39.651Z,36
2023-02-08T07:49:41.309Z,34.6
2023-02-08T07:51:43.017Z,36.7
2023-02-08T07:53:44.694Z,36.8
2023-02-08T07:55:49.542Z,42.5
2023-02-08T07:57:51.235Z,39
2023-02-08T07:59:54.231Z,39.2
2023-02-08T08:00:55.387Z,45.1
2023-02-08T08:02:57.096Z,46.8
2023-02-08T08:04:58.786Z,43.1
2023-02-08T08:07:00.508Z,44.9
2023-02-08T08:09:05.375Z,51
2023-02-08T08:11:07.060Z,49.4
2023-02-08T08:13:08.833Z,45.2
2023-02-08T08:15:10.498Z,50.2
2023-02-08T08:21:15.677Z,49.8
2023-02-08T08:25:22.275Z,53.1
2023-02-08T08:27:24.000Z,49.6
2023-02-08T08:29:25.743Z,46.9
2023-02-08T08:31:27.569Z,52.4
2023-02-08T08:33:29.165Z,52.1
2023-02-08T08:35:30.919Z,48.8
2023-02-08T08:37:35.804Z,55.4
2023-02-08T08:39:37.554Z,54.1
2023-02-08T08:41:39.295Z,52.1
2023-02-08T08:43:41.051Z,54.9
2023-02-08T08:45:42.770Z,53.6
2023-02-08T08:47:44.539Z,54.1
2023-02-08T08:49:46.256Z,52.8
2023-02-08T08:51:51.347Z,65.9
2023-02-08T08:55:54.698Z,59.8
2023-02-08T08:56:57.276Z,68.4
2023-02-08T08:58:58.957Z,60.9
2023-02-08T09:01:00.696Z,65.9
2023-02-08T09:03:02.509Z,64.3
2023-02-08T09:05:07.454Z,72.9
2023-02-08T09:07:09.180Z,66.4
2023-02-08T09:09:10.976Z,66.7
2023-02-08T09:11:12.765Z,66.5
2023-02-08T09:13:14.533Z,71.4
2023-02-08T09:15:16.314Z,65.5
2023-02-08T09:17:18.144Z,63.2
2023-02-08T09:21:24.900Z,66.1
2023-02-08T09:23:26.719Z,64.6
2023-02-08T09:25:28.501Z,68.3
2023-02-08T09:27:30.441Z,67.9
2023-02-08T09:29:32.137Z,64.8
2023-02-08T09:31:33.989Z,73.5
2023-02-08T09:35:40.968Z,71.9
2023-02-08T09:37:42.600Z,61.3
2023-02-08T09:39:44.440Z,55.3
2023-02-08T09:41:46.272Z,66.7
2023-02-08T09:43:48.102Z,60.9
2023-02-08T09:45:59.228Z,42.7
2023-02-08T09:47:54.982Z,66.1
2023-02-08T09:49:58.608Z,60
2023-02-08T09:51:58.693Z,66.9
2023-02-08T09:55:03.056Z,66.6
2023-02-08T09:57:04.899Z,62.6
2023-02-08T09:59:06.785Z,60.4
2023-02-08T10:01:11.876Z,64.7
2023-02-08T10:03:13.721Z,58.8
2023-02-08T10:05:15.541Z,60.5
2023-02-08T10:07:17.405Z,60.3
2023-02-08T10:09:19.314Z,54.9
2023-02-08T10:13:30.234Z,53.7
2023-02-08T10:15:28.114Z,58.9
2023-02-08T10:23:35.705Z,53.8
2023-02-08T10:25:37.600Z,51.9
2023-02-08T10:27:39.513Z,58.2
2023-02-08T10:29:44.560Z,51.3
2023-02-08T10:31:46.531Z,48.8
2023-02-08T10:33:48.410Z,51.3
2023-02-08T10:35:50.315Z,44.3
2023-02-08T10:37:52.252Z,46
2023-02-08T10:39:54.184Z,49.1
2023-02-08T10:41:56.125Z,45.5
2023-02-08T10:44:01.194Z,43.9
2023-02-08T10:46:03.169Z,38.4
2023-02-08T10:48:05.076Z,35.8
2023-02-08T10:50:30.225Z,33.5
2023-02-08T10:52:29.991Z,34.7
2023-02-08T10:56:37.017Z,27.8
2023-02-08T11:00:40.862Z,22.8
2023-02-08T11:02:42.723Z,19.4
2023-02-08T11:04:44.663Z,15
2023-02-08T11:06:46.472Z,13.6
2023-02-08T11:08:48.369Z,14.5
2023-02-08T11:10:53.284Z,13.7
2023-02-08T11:12:55.167Z,10.6
2023-02-08T11:14:57.091Z,14.3
2023-02-08T11:16:58.953Z,12.6
2023-02-08T11:19:00.861Z,14.4
2023-02-08T11:21:02.772Z,12
2023-02-08T11:23:04.646Z,12.3
2023-02-08T11:25:09.635Z,11.1
2023-02-08T11:27:11.553Z,12.1
2023-02-08T11:29:13.451Z,10.9
2023-02-08T11:31:15.433Z,10.5
2023-02-08T11:33:17.282Z,11
2023-02-08T11:35:19.230Z,11.5
2023-02-08T11:37:21.131Z,10.1
2023-02-08T11:39:26.129Z,11.2
2023-02-08T11:43:29.988Z,10.1
2023-02-08T11:54:45.306Z,10.4
2023-02-08T11:58:49.200Z,12.1
2023-02-08T12:00:51.186Z,11.8
2023-02-08T12:02:53.122Z,11.8
2023-02-08T12:04:55.105Z,11.4
2023-02-08T12:07:00.161Z,9.8
2023-02-08T12:09:02.076Z,11.9
2023-02-08T12:11:04.035Z,12.7
2023-02-08T12:13:06.022Z,10.3
2023-02-08T12:15:07.944Z,10.6
2023-02-08T12:17:09.934Z,10.2
2023-02-08T12:19:11.920Z,9.9
2023-02-08T12:21:16.931Z,11.7
2023-02-08T12:23:18.882Z,10.8
2023-02-08T12:25:20.857Z,8.5
2023-02-08T12:29:24.799Z,12.4
2023-02-08T12:31:26.912Z,10.5
2023-02-08T12:33:28.743Z,7.4
2023-02-08T12:35:41.638Z,8.6
2023-02-08T12:37:35.758Z,7.7
2023-02-08T12:39:37.707Z,8.5
2023-02-08T12:40:40.234Z,9.3
2023-02-08T12:42:42.194Z,9.8
2023-02-08T12:44:44.162Z,7.7
2023-02-08T12:46:46.144Z,9.6
2023-02-08T12:48:51.177Z,9.8
2023-02-08T12:50:53.161Z,9.8
2023-02-08T12:52:55.145Z,8.8
2023-02-08T12:54:57.113Z,8.8
2023-02-08T13:03:09.545Z,9.6
2023-02-08T13:05:11.549Z,7
2023-02-08T13:07:13.524Z,8.1
2023-02-08T13:09:15.525Z,8.2
2023-02-08T13:11:20.160Z,8.3
2023-02-08T13:13:19.497Z,7.1
2023-02-08T13:17:26.506Z,7.5
2023-02-08T13:19:28.495Z,7.8
2023-02-08T13:21:30.514Z,7.1
2023-02-08T13:27:36.467Z,7.3
2023-02-08T13:29:38.476Z,6.4
2023-02-08T13:34:00.478Z,7.3
2023-02-08T13:35:47.508Z,7.6
2023-02-08T13:36:50.020Z,7.5
2023-02-08T13:38:52.017Z,8.5
2023-02-08T13:40:53.999Z,7.1
2023-02-08T13:42:56.012Z,7.9
2023-02-08T13:45:01.064Z,5.8
2023-02-08T13:47:03.047Z,6.7
2023-02-08T13:49:05.063Z,6.8
2023-02-08T13:51:07.031Z,5.7
2023-02-08T13:53:09.039Z,7
2023-02-08T13:55:11.029Z,6.3
2023-02-08T13:57:13.024Z,5.6
2023-02-08T14:01:20.217Z,5.3
2023-02-08T14:03:22.062Z,5.4
2023-02-08T14:05:24.047Z,5.8
2023-02-08T14:07:26.066Z,5.8
2023-02-08T14:09:28.066Z,6.4
2023-02-08T14:11:30.073Z,5.3
2023-02-08T14:13:35.102Z,4.8
2023-02-08T14:15:37.079Z,5.9
2023-02-08T14:17:39.091Z,5.6
2023-02-08T14:19:41.128Z,6.5
2023-02-08T14:21:43.084Z,6.3
2023-02-08T14:23:45.075Z,6.4
2023-02-08T14:25:47.217Z,6.5
2023-02-08T14:27:52.205Z,7.9
2023-02-08T14:29:54.126Z,7
2023-02-08T14:31:56.219Z,6.6
2023-02-08T14:34:18.748Z,5.9
2023-02-08T14:36:20.736Z,5.4
2023-02-08T14:38:22.745Z,6
2023-02-08T14:40:27.856Z,5.6
2023-02-08T14:48:35.792Z,6.1
2023-02-08T14:50:37.820Z,6.4
2023-02-08T14:52:39.840Z,8
2023-02-08T14:54:44.885Z,6
2023-02-08T14:56:46.875Z,6.6
2023-02-08T14:58:48.878Z,5.7
2023-02-08T15:00:50.911Z,7.2
2023-02-08T15:02:52.881Z,7.5
2023-02-08T15:04:54.918Z,5.5
2023-02-08T15:06:58.371Z,4.5
2023-02-08T15:09:01.929Z,4
2023-02-08T15:15:07.927Z,4.3
2023-02-08T15:17:09.906Z,4.3
2023-02-08T15:19:11.943Z,5.1
2023-02-08T15:23:18.976Z,6.2
2023-02-08T15:25:20.957Z,5.4
2023-02-08T15:27:22.945Z,7.2
2023-02-08T15:28:25.647Z,6.7
2023-02-08T15:36:36.491Z,6.7
2023-02-08T15:42:42.474Z,5.3
2023-02-08T15:46:46.458Z,6.6
2023-02-08T15:48:48.440Z,5.6
2023-02-08T15:50:53.492Z,5.3
2023-02-08T15:52:55.499Z,5.6
2023-02-08T15:54:57.479Z,4.9
2023-02-08T15:59:01.464Z,5.3
2023-02-08T16:03:05.565Z,6
2023-02-08T16:05:10.468Z,7
2023-02-08T16:07:12.483Z,8
2023-02-08T16:09:14.465Z,6.7
2023-02-08T16:11:16.451Z,6.9
2023-02-08T16:13:18.428Z,7.9
2023-02-08T16:15:20.415Z,8.1
2023-02-08T16:17:22.376Z,9.2
2023-02-08T16:19:27.416Z,9.2
2023-02-08T16:21:29.406Z,8.3
2023-02-08T16:23:31.379Z,8.6
2023-02-08T16:24:33.889Z,7.8
2023-02-08T16:26:35.827Z,8.7
2023-02-08T16:28:37.833Z,9.4
2023-02-08T16:30:39.873Z,7.7
2023-02-08T16:32:44.781Z,9.1
2023-02-08T16:34:46.836Z,8.6
2023-02-08T16:38:50.945Z,10.2
2023-02-08T16:40:53.036Z,9.3
2023-02-08T16:42:55.089Z,9.8
2023-02-08T16:44:57.149Z,9.7
2023-02-08T16:47:02.324Z,7.7
2023-02-08T16:49:04.386Z,9.3
2023-02-08T16:55:10.517Z,10
2023-02-08T16:57:12.571Z,10.5
2023-02-08T16:59:14.633Z,10
2023-02-08T17:01:19.837Z,9.4
2023-02-08T17:03:21.854Z,10.5
2023-02-08T17:05:23.825Z,10.5
2023-02-08T17:07:25.844Z,9.8
2023-02-08T17:13:31.892Z,9.9
2023-02-08T17:19:41.065Z,11.1
2023-02-08T17:20:43.631Z,11
2023-02-08T17:22:45.634Z,12
2023-02-08T17:28:54.780Z,11.7
2023-02-08T17:30:56.902Z,12.7
2023-02-08T17:32:58.776Z,11.5
2023-02-08T17:35:00.763Z,12.8
2023-02-08T17:37:02.743Z,13.9
2023-02-08T17:39:04.717Z,12.6
2023-02-08T17:41:06.708Z,12.6
2023-02-08T17:43:11.971Z,13
2023-02-08T17:45:13.842Z,14.2
2023-02-08T17:47:15.814Z,13.4
2023-02-08T17:49:17.785Z,14.9
2023-02-08T17:51:19.771Z,14.1
2023-02-08T17:53:21.719Z,13.8
2023-02-08T17:55:23.694Z,12.9
2023-02-08T17:59:30.790Z,13.9
2023-02-08T18:01:32.795Z,15.7
2023-02-08T18:03:34.681Z,15.7
2023-02-08T18:05:36.641Z,15.5
2023-02-08T18:07:38.589Z,14.5
2023-02-08T18:09:40.533Z,15
2023-02-08T18:11:45.629Z,16.3
2023-02-08T18:13:47.693Z,13.7
2023-02-08T18:15:49.616Z,14.8
2023-02-08T18:18:11.465Z,16.3
2023-02-08T18:20:13.417Z,16.7
2023-02-08T18:22:15.352Z,15.9
2023-02-08T18:24:20.439Z,18.3
2023-02-08T18:26:22.398Z,16.3
2023-02-08T18:28:24.450Z,15.4
2023-02-08T18:34:30.180Z,12.4
2023-02-08T18:36:32.134Z,14.8
2023-02-08T18:38:37.230Z,15.2
2023-02-08T18:40:39.133Z,15.6
2023-02-08T18:42:41.059Z,15.2
2023-02-08T18:44:42.988Z,14.7
2023-02-08T18:52:55.859Z,17.2
2023-02-08T18:54:57.730Z,15.9
2023-02-08T18:56:59.651Z,16.3
2023-02-08T18:59:01.627Z,16.8
2023-02-08T19:01:03.592Z,15
2023-02-08T19:03:05.466Z,17.2
2023-02-08T19:05:07.366Z,15.5
2023-02-08T19:07:12.479Z,15
2023-02-08T19:09:14.384Z,15.4
2023-02-08T19:14:20.756Z,16.8
2023-02-08T19:16:22.725Z,15
2023-02-08T19:18:24.558Z,16
2023-02-08T19:20:29.638Z,16.7
2023-02-08T19:24:33.492Z,17.2
2023-02-08T19:28:37.295Z,17.8
2023-02-08T19:30:39.286Z,17.9
2023-02-08T19:32:41.098Z,16.8
2023-02-08T19:34:46.179Z,17.7
2023-02-08T19:36:48.075Z,16.3
2023-02-08T19:40:51.918Z,16.5
2023-02-08T19:42:53.801Z,16.4
2023-02-08T19:44:55.735Z,15.5
2023-02-08T19:49:02.675Z,22.7
2023-02-08T19:51:04.602Z,19.7
2023-02-08T19:53:06.479Z,18.7
2023-02-08T19:55:08.418Z,18.2
2023-02-08T19:57:10.287Z,19.1
2023-02-08T19:59:12.219Z,19.3
2023-02-08T20:01:14.164Z,21.2
2023-02-08T20:03:21.970Z,21
2023-02-08T20:05:21.057Z,20.6
2023-02-08T20:07:22.940Z,25.4
2023-02-08T20:08:27.196Z,22.1
2023-02-08T20:10:27.378Z,23.9
2023-02-08T20:12:29.235Z,22.4
2023-02-08T20:14:31.207Z,25.2
2023-02-08T20:16:36.271Z,24.7
2023-02-08T20:18:38.061Z,22.8
2023-02-08T20:20:39.953Z,21.8
2023-02-08T20:22:41.848Z,21.8
2023-02-08T20:24:43.749Z,21.8
2023-02-08T20:26:45.641Z,22
2023-02-08T20:28:47.518Z,21.5
2023-02-08T20:30:52.577Z,23.8
2023-02-08T20:32:54.429Z,23
2023-02-08T20:34:59.850Z,20.8
2023-02-08T20:37:07.399Z,19.2
2023-02-08T20:39:00.155Z,20.3
2023-02-08T20:41:01.943Z,20.1
2023-02-08T20:43:03.859Z,19.7
2023-02-08T20:45:08.889Z,22.9
2023-02-08T20:47:10.788Z,21.6
2023-02-08T20:49:12.621Z,21.6
2023-02-08T20:51:14.527Z,22.4
2023-02-08T20:53:16.375Z,20.4
2023-02-08T20:57:20.116Z,20.9
2023-02-08T20:59:25.123Z,24
2023-02-08T21:01:27.132Z,20.2
2023-02-08T21:03:28.872Z,17
2023-02-08T21:04:31.403Z,19.1
2023-02-08T21:06:33.253Z,20.8
2023-02-08T21:08:35.112Z,19.9
2023-02-08T21:10:37.019Z,19.2
2023-02-08T21:12:42.020Z,21.1
2023-02-08T21:14:43.878Z,17.8
2023-02-08T21:16:45.887Z,17.8
2023-02-08T21:20:49.488Z,18
2023-02-08T21:22:51.361Z,19.8
2023-02-08T21:24:53.196Z,19.5
2023-02-08T21:26:58.234Z,22.1
2023-02-08T21:29:00.134Z,19.5
2023-02-08T21:31:02.066Z,18.3
2023-02-08T21:33:03.846Z,19.1
2023-02-08T21:35:05.752Z,20.2
2023-02-08T21:37:07.590Z,19.7
2023-02-08T21:43:16.313Z,21.3
2023-02-08T21:47:20.080Z,21.3
2023-02-08T21:49:21.927Z,22
2023-02-08T21:53:25.647Z,21.1
2023-02-08T21:55:30.649Z,20
2023-02-08T21:57:32.519Z,21.5
2023-02-08T21:59:34.386Z,23.3
2023-02-08T22:03:59.179Z,21.6
2023-02-08T22:06:01.020Z,18.7
2023-02-08T22:08:06.064Z,22.7
2023-02-08T22:10:07.893Z,22.3
2023-02-08T22:12:09.750Z,22
2023-02-08T22:14:11.579Z,19.6
2023-02-08T22:22:22.192Z,24.3
2023-02-08T22:26:25.893Z,22.8
2023-02-08T22:28:27.868Z,20.5
2023-02-08T22:30:29.567Z,19.1
2023-02-08T22:32:31.429Z,20
2023-02-08T22:34:33.270Z,20.9
2023-02-08T22:36:38.254Z,20
2023-02-08T22:38:40.123Z,21
2023-02-08T22:40:42.095Z,18.6
2023-02-08T22:42:43.774Z,19.7
2023-02-08T22:44:45.618Z,18
2023-02-08T22:50:54.272Z,15.9
2023-02-08T22:56:00.456Z,15.3
2023-02-08T22:58:02.305Z,17.4
2023-02-08T23:00:04.115Z,15.8
2023-02-08T23:02:05.952Z,15.5
2023-02-08T23:04:10.939Z,13.9
2023-02-08T23:06:12.780Z,12.4
2023-02-08T23:08:14.620Z,14
2023-02-08T23:14:20.164Z,12.2
2023-02-08T23:16:22.066Z,12.8
2023-02-08T23:18:27.010Z,12.4
2023-02-08T23:20:28.856Z,11.2
2023-02-08T23:22:30.682Z,11.2
2023-02-08T23:26:34.400Z,12.3
2023-02-08T23:32:43.120Z,12
2023-02-08T23:36:46.813Z,11.5
2023-02-08T23:40:50.535Z,11.1
2023-02-08T23:51:02.999Z,10.5
2023-02-08T23:52:05.516Z,13.9
2023-02-08T23:54:07.380Z,10.4
2023-02-08T23:56:09.217Z,10.1
2023-02-08T23:58:11.107Z,11.5
